Time;durP1;ratioP1;P1;durP2;ratioP2;P2;SDS_P1;SDS_P2;PMS_P1;PMS_P2;Temp;Humidity;BMP_temperature;BMP_pressure;BME280_temperature;BME280_humidity;BME280_pressure;Samples;Min_cycle;Max_cycle;Signal;HPM_P1;HPM_P2
2021/11/02 00:01:42;;;;;;;9.15;5.40;;;6.40;99.90;;;;;;4996093;28;20048;-67
2021/11/02 00:04:08;;;;;;;10.80;5.82;;;6.40;99.90;;;;;;5022819;28;20033;-67
2021/11/02 00:06:35;;;;;;;8.52;5.82;;;6.50;99.90;;;;;;5017752;28;20048;-67
2021/11/02 00:09:05;;;;;;;9.65;5.78;;;6.50;99.90;;;;;;5005882;28;20061;-67
2021/11/02 00:11:31;;;;;;;8.50;5.70;;;6.40;99.90;;;;;;5018499;28;20313;-67
2021/11/02 00:14:00;;;;;;;9.55;6.20;;;6.40;99.90;;;;;;5025981;28;20046;-67
2021/11/02 00:16:26;;;;;;;9.32;6.75;;;6.40;99.90;;;;;;5018710;28;20030;-67
2021/11/02 00:19:03;;;;;;;7.35;6.63;;;6.40;99.90;;;;;;5020565;28;20092;-67
2021/11/02 00:21:33;;;;;;;10.43;6.60;;;6.40;99.90;;;;;;5019847;28;20053;-67
2021/11/02 00:24:09;;;;;;;10.15;7.35;;;6.40;99.90;;;;;;5004579;28;20413;-67
2021/11/02 00:26:36;;;;;;;8.52;6.15;;;6.40;99.90;;;;;;5016065;28;20045;-67
2021/11/02 00:29:02;;;;;;;11.18;6.90;;;6.30;99.90;;;;;;5006683;28;20038;-67
2021/11/02 00:31:28;;;;;;;11.38;7.05;;;6.30;99.90;;;;;;5003712;28;20076;-67
2021/11/02 00:33:54;;;;;;;11.05;7.70;;;6.30;99.90;;;;;;5004665;28;20046;-67
2021/11/02 00:36:20;;;;;;;13.55;8.13;;;6.30;99.90;;;;;;5020155;28;20072;-67
2021/11/02 00:38:46;;;;;;;12.85;8.52;;;6.30;99.90;;;;;;5026436;28;21077;-67
2021/11/02 00:41:12;;;;;;;12.50;7.88;;;6.30;99.90;;;;;;5032497;28;20555;-67
2021/11/02 00:43:38;;;;;;;8.25;6.63;;;6.20;99.90;;;;;;5003412;28;20042;-67
2021/11/02 00:46:04;;;;;;;9.07;6.80;;;6.20;99.90;;;;;;5025026;28;20446;-67
2021/11/02 00:48:30;;;;;;;9.35;8.02;;;6.20;99.90;;;;;;5008339;28;20118;-67
2021/11/02 00:50:55;;;;;;;15.07;7.25;;;6.20;99.90;;;;;;5029239;28;20509;-67
2021/11/02 00:53:22;;;;;;;15.27;7.38;;;6.20;99.90;;;;;;5002343;28;20179;-67
2021/11/02 00:55:49;;;;;;;8.30;6.65;;;6.10;99.90;;;;;;5028149;28;20080;-67
2021/11/02 00:58:14;;;;;;;8.88;6.57;;;6.10;99.90;;;;;;5006073;28;20576;-67
2021/11/02 01:00:41;;;;;;;12.77;6.18;;;6.10;99.90;;;;;;5009765;28;20128;-67
2021/11/02 01:03:08;;;;;;;9.75;6.55;;;6.00;99.90;;;;;;5003358;28;20248;-67
2021/11/02 01:05:35;;;;;;;12.80;7.47;;;6.00;99.90;;;;;;5009805;28;20385;-67
2021/11/02 01:08:02;;;;;;;12.35;6.53;;;6.00;99.90;;;;;;5002943;28;20482;-67
2021/11/02 01:10:28;;;;;;;8.85;6.40;;;6.00;99.90;;;;;;5025746;28;20068;-67
2021/11/02 01:12:54;;;;;;;11.95;7.55;;;6.00;99.90;;;;;;5021484;28;20034;-67
2021/11/02 01:15:23;;;;;;;10.85;6.50;;;6.00;99.90;;;;;;5008166;28;20056;-67
2021/11/02 01:17:49;;;;;;;12.05;7.20;;;6.00;99.90;;;;;;5024794;28;20507;-67
2021/11/02 01:20:16;;;;;;;13.50;6.90;;;5.90;99.90;;;;;;5022145;28;20212;-67
2021/11/02 01:22:44;;;;;;;12.05;6.88;;;6.00;99.90;;;;;;5012018;28;20458;-67
2021/11/02 01:25:11;;;;;;;14.77;7.68;;;6.00;99.90;;;;;;5020739;28;20045;-67
2021/11/02 01:27:41;;;;;;;10.70;6.60;;;5.90;99.90;;;;;;5024251;28;20046;-67
2021/11/02 01:30:09;;;;;;;10.15;6.72;;;5.90;99.90;;;;;;5022091;28;20116;-68
2021/11/02 01:32:35;;;;;;;9.98;6.60;;;5.90;99.90;;;;;;5009617;28;20092;-68
2021/11/02 01:35:01;;;;;;;10.68;6.70;;;5.90;99.90;;;;;;5018165;28;20455;-67
2021/11/02 01:37:27;;;;;;;13.77;6.63;;;5.80;99.90;;;;;;5024956;28;20045;-68
2021/11/02 01:39:53;;;;;;;9.68;7.13;;;5.80;99.90;;;;;;5024972;28;20493;-67
2021/11/02 01:42:22;;;;;;;10.07;7.00;;;5.80;99.90;;;;;;5022538;28;20102;-67
2021/11/02 01:44:48;;;;;;;12.85;8.15;;;5.80;99.90;;;;;;5019345;28;20642;-67
2021/11/02 01:47:16;;;;;;;15.05;7.43;;;5.80;99.90;;;;;;5012457;28;20470;-67
2021/11/02 01:49:43;;;;;;;14.63;8.73;;;5.80;99.90;;;;;;5019321;28;20644;-67
2021/11/02 01:52:09;;;;;;;12.20;7.70;;;5.90;99.90;;;;;;5004766;28;20077;-67
2021/11/02 01:54:35;;;;;;;17.40;8.25;;;5.90;99.90;;;;;;5020842;28;20462;-68
2021/11/02 01:57:02;;;;;;;13.05;7.93;;;5.90;99.90;;;;;;5011192;28;20068;-67
2021/11/02 01:59:30;;;;;;;15.55;8.23;;;5.90;99.90;;;;;;5010753;28;20088;-67
2021/11/02 02:02:08;;;;;;;11.43;7.80;;;5.80;99.90;;;;;;5021418;28;20429;-67
2021/11/02 02:04:46;;;;;;;17.00;9.05;;;5.90;99.90;;;;;;5022166;28;20037;-67
2021/11/02 02:07:23;;;;;;;14.55;7.43;;;5.80;99.90;;;;;;5009169;28;20040;-67
2021/11/02 02:10:05;;;;;;;12.90;7.78;;;5.80;99.90;;;;;;5028632;28;20041;-67
2021/11/02 02:12:57;;;;;;;14.02;7.90;;;5.80;99.90;;;;;;5025936;28;20037;-67
2021/11/02 02:15:39;;;;;;;14.93;7.93;;;5.80;99.90;;;;;;5004226;28;20085;-67
2021/11/02 02:18:32;;;;;;;13.77;7.90;;;5.70;99.90;;;;;;5007660;28;20054;-67
2021/11/02 02:21:15;;;;;;;13.88;7.15;;;5.80;99.90;;;;;;5000541;28;20045;-67
2021/11/02 02:24:21;;;;;;;14.82;7.88;;;5.70;99.90;;;;;;5007886;28;20049;-67
2021/11/02 02:27:05;;;;;;;11.60;7.85;;;5.70;99.90;;;;;;4960571;28;20047;-67
2021/11/02 02:29:34;;;;;;;13.50;7.17;;;5.70;99.90;;;;;;5022930;28;20532;-67
2021/11/02 02:32:02;;;;;;;13.25;7.60;;;5.60;99.90;;;;;;5015824;28;20402;-67
2021/11/02 02:34:29;;;;;;;18.60;8.57;;;5.70;99.90;;;;;;5026333;28;20456;-67
2021/11/02 02:36:57;;;;;;;12.63;8.13;;;5.70;99.90;;;;;;5001337;28;20398;-67
2021/11/02 02:39:24;;;;;;;17.98;8.45;;;5.70;99.90;;;;;;5021718;28;20050;-67
2021/11/02 02:41:50;;;;;;;20.48;8.55;;;5.70;99.90;;;;;;5001427;28;20089;-67
2021/11/02 02:44:18;;;;;;;16.80;8.32;;;5.70;99.90;;;;;;5004769;28;20147;-67
2021/11/02 02:46:43;;;;;;;13.38;8.82;;;5.70;99.90;;;;;;5022052;28;20180;-67
2021/11/02 02:49:12;;;;;;;17.23;8.77;;;5.60;99.90;;;;;;5006847;28;20449;-67
2021/11/02 02:51:43;;;;;;;12.52;8.20;;;5.60;99.90;;;;;;5003334;28;20133;-68
2021/11/02 02:54:13;;;;;;;14.90;8.50;;;5.60;99.90;;;;;;5023055;28;20053;-67
2021/11/02 02:56:45;;;;;;;19.67;9.80;;;5.70;99.90;;;;;;5025052;28;20038;-67
2021/11/02 02:59:12;;;;;;;14.45;9.23;;;5.60;99.90;;;;;;5022547;28;20042;-68
2021/11/02 03:01:39;;;;;;;13.10;9.18;;;5.60;99.90;;;;;;5009990;28;20047;-67
2021/11/02 03:04:13;;;;;;;13.90;8.50;;;5.60;99.90;;;;;;5004980;28;20045;-68
2021/11/02 03:06:42;;;;;;;;;;;5.60;99.90;;;;;;5024885;28;20087;-67
2021/11/02 03:09:08;;;;;;;16.75;8.82;;;5.60;99.90;;;;;;4986036;28;19921;-67
2021/11/02 03:11:35;;;;;;;16.55;9.02;;;5.50;99.90;;;;;;5027779;28;20594;-67
2021/11/02 03:14:06;;;;;;;14.13;8.35;;;5.50;99.90;;;;;;4997324;28;20049;-67
2021/11/02 03:16:54;;;;;;;19.10;9.10;;;5.50;99.90;;;;;;5006156;28;20481;-68
2021/11/02 03:44:30;;;;;;;16.30;10.52;;;5.50;99.90;;;;;;5020415;28;20056;-67
2021/11/02 03:54:55;;;;;;;19.83;10.52;;;5.60;99.90;;;;;;5020591;28;20049;-67
2021/11/02 03:57:46;;;;;;;21.10;10.85;;;5.50;99.90;;;;;;5004514;28;20503;-67
2021/11/02 04:00:27;;;;;;;20.50;10.50;;;5.50;99.90;;;;;;5018120;28;20061;-68
2021/11/02 04:27:57;;;;;;;20.08;11.27;;;5.50;99.90;;;;;;5026413;28;20033;-67
2021/11/02 04:30:46;;;;;;;20.42;11.10;;;5.50;99.90;;;;;;5009306;28;20443;-67
2021/11/02 04:47:28;;;;;;;23.77;12.13;;;5.30;99.90;;;;;;5008151;28;20393;-67
2021/11/02 05:55:17;;;;;;;43.45;10.52;;;4.70;99.90;;;;;;5010556;28;20041;-67
2021/11/02 06:00:17;;;;;;;26.70;11.68;;;4.70;99.90;;;;;;5019958;28;20053;-67
2021/11/02 06:05:45;;;;;;;18.17;9.47;;;4.60;99.90;;;;;;5007267;28;20051;-67
2021/11/02 06:30:53;;;;;;;27.52;13.75;;;4.60;99.90;;;;;;5019774;28;20069;-67
2021/11/02 06:33:40;;;;;;;21.40;12.23;;;4.60;99.90;;;;;;5025728;28;20050;-67
2021/11/02 06:52:51;;;;;;;26.65;13.65;;;4.90;99.90;;;;;;4981153;28;20490;-67
2021/11/02 06:55:38;;;;;;;32.25;12.90;;;4.90;99.90;;;;;;5023698;28;20494;-67
2021/11/02 07:18:11;;;;;;;19.42;11.57;;;5.20;99.90;;;;;;5019031;28;20080;-67
2021/11/02 08:47:15;;;;;;;10.07;7.72;;;8.70;99.90;;;;;;5003938;28;20067;-66
2021/11/02 08:49:46;;;;;;;8.00;7.03;;;8.70;99.90;;;;;;5008048;28;20053;-66
2021/11/02 08:52:14;;;;;;;8.98;6.60;;;9.20;99.90;;;;;;5018976;28;20041;-66
2021/11/02 08:54:42;;;;;;;12.02;6.97;;;9.40;99.90;;;;;;5024530;28;20078;-66
2021/11/02 08:57:09;;;;;;;10.10;6.43;;;9.70;99.90;;;;;;5018559;28;20445;-66
2021/11/02 08:59:35;;;;;;;6.75;6.03;;;9.90;99.90;;;;;;5010103;28;20125;-66
2021/11/02 09:02:08;;;;;;;9.27;6.28;;;9.90;99.90;;;;;;5022799;28;20510;-66
2021/11/02 09:04:44;;;;;;;7.00;5.82;;;9.90;99.90;;;;;;5028288;28;20045;-66
2021/11/02 09:07:17;;;;;;;7.03;6.32;;;9.90;99.90;;;;;;5008044;28;20061;-66
2021/11/02 09:09:46;;;;;;;10.50;6.60;;;9.90;99.90;;;;;;5027607;28;20509;-66
2021/11/02 09:12:14;;;;;;;13.43;6.35;;;9.80;99.90;;;;;;5017251;28;20580;-66
2021/11/02 09:14:40;;;;;;;9.05;6.47;;;9.80;99.90;;;;;;5013019;28;20050;-66
2021/11/02 09:17:07;;;;;;;9.27;5.95;;;9.70;99.90;;;;;;5023604;28;20037;-67
2021/11/02 09:19:35;;;;;;;7.60;6.00;;;9.60;99.90;;;;;;5031252;28;20088;-67
2021/11/02 09:22:10;;;;;;;8.88;6.50;;;9.60;99.90;;;;;;5022892;28;20080;-67
2021/11/02 09:24:41;;;;;;;9.20;6.43;;;9.60;99.90;;;;;;5027409;28;20548;-67
2021/11/02 09:27:07;;;;;;;11.52;6.53;;;9.60;99.90;;;;;;5005344;28;20057;-67
2021/11/02 09:29:37;;;;;;;7.18;6.13;;;9.50;99.90;;;;;;5012347;28;20084;-67
2021/11/02 09:32:08;;;;;;;7.35;5.97;;;9.50;99.90;;;;;;5021341;28;20362;-67
2021/11/02 09:34:34;;;;;;;11.68;6.30;;;9.40;99.90;;;;;;5009087;28;20068;-67
2021/11/02 09:37:08;;;;;;;10.10;6.68;;;9.40;99.90;;;;;;5028304;28;20480;-67
2021/11/02 09:39:41;;;;;;;8.23;6.30;;;9.40;99.90;;;;;;5019462;28;20044;-67
2021/11/02 09:42:26;;;;;;;8.95;6.65;;;9.30;99.90;;;;;;5027180;28;20096;-67
2021/11/02 09:45:14;;;;;;;11.50;7.20;;;9.40;99.90;;;;;;5025828;28;20080;-66
2021/11/02 09:48:05;;;;;;;8.20;7.07;;;9.40;99.90;;;;;;5017352;28;20128;-66
2021/11/02 09:50:58;;;;;;;9.23;6.75;;;9.40;99.90;;;;;;5029520;28;20117;-67
2021/11/02 09:53:51;;;;;;;7.72;6.57;;;9.40;99.90;;;;;;5021037;28;20457;-67
2021/11/02 09:56:46;;;;;;;7.88;7.13;;;9.40;99.90;;;;;;5026762;28;20033;-67
2021/11/02 09:59:16;;;;;;;8.70;6.07;;;9.50;99.90;;;;;;5019571;28;20049;-67
2021/11/02 10:01:49;;;;;;;10.32;7.28;;;9.40;99.90;;;;;;5028547;28;20047;-67
2021/11/02 10:04:19;;;;;;;9.35;7.80;;;9.50;99.90;;;;;;5007677;28;20293;-66
2021/11/02 10:06:50;;;;;;;10.50;8.52;;;9.50;99.90;;;;;;5006161;28;20421;-67
2021/11/02 10:09:56;;;;;;;10.68;7.45;;;9.50;99.90;;;;;;5006288;28;20045;-66
2021/11/02 10:12:34;;;;;;;;;;;9.60;99.90;;;;;;5023783;28;20420;-66
2021/11/02 10:15:10;;;;;;;10.10;7.90;;;9.60;99.90;;;;;;5021950;28;20000;-65
2021/11/02 10:17:49;;;;;;;10.20;8.02;;;9.80;99.90;;;;;;5025329;28;20378;-66
2021/11/02 10:20:36;;;;;;;9.27;7.78;;;9.80;99.90;;;;;;5021552;28;20706;-67
2021/11/02 10:23:08;;;;;;;12.60;8.45;;;9.90;99.90;;;;;;5006159;28;20092;-66
2021/11/02 10:25:46;;;;;;;10.05;7.88;;;9.90;99.90;;;;;;5020061;28;20136;-66
2021/11/02 10:28:41;;;;;;;12.05;9.50;;;9.90;99.90;;;;;;5025024;28;20046;-66
2021/11/02 10:31:43;;;;;;;10.90;8.02;;;9.90;99.90;;;;;;5019536;28;20047;-67
2021/11/02 10:34:38;;;;;;;11.90;8.45;;;9.90;99.90;;;;;;5026309;28;20421;-66
2021/11/02 10:37:31;;;;;;;10.35;8.18;;;10.00;99.90;;;;;;4986435;28;20096;-67
2021/11/02 10:40:11;;;;;;;11.90;8.55;;;10.00;99.90;;;;;;4987117;28;20057;-66
2021/11/02 10:43:16;;;;;;;9.15;7.50;;;10.00;99.90;;;;;;5024921;28;20033;-66
2021/11/02 10:45:54;;;;;;;12.40;7.38;;;10.00;99.90;;;;;;5006264;28;20061;-66
2021/11/02 10:48:28;;;;;;;8.90;7.15;;;10.10;99.90;;;;;;5010291;28;20049;-66
2021/11/02 10:51:03;;;;;;;10.38;7.13;;;10.10;99.90;;;;;;5001094;28;20085;-66
2021/11/02 10:53:46;;;;;;;11.88;7.38;;;10.20;99.90;;;;;;5019799;28;20038;-66
2021/11/02 10:56:38;;;;;;;8.50;6.07;;;10.20;99.90;;;;;;5019804;28;20061;-66
2021/11/02 10:59:15;;;;;;;7.82;6.88;;;10.30;99.90;;;;;;5022438;28;20053;-66
2021/11/02 11:01:46;;;;;;;8.32;6.43;;;10.50;99.90;;;;;;5022721;28;20041;-66
2021/11/02 11:04:14;;;;;;;9.52;6.53;;;10.70;99.90;;;;;;5026834;28;20041;-66
2021/11/02 11:06:43;;;;;;;9.23;6.65;;;10.80;99.90;;;;;;5003727;28;20124;-66
2021/11/02 11:09:13;;;;;;;7.50;6.13;;;10.90;99.90;;;;;;5026472;28;20132;-66
2021/11/02 11:11:46;;;;;;;7.78;5.75;;;11.00;99.90;;;;;;5022766;28;20038;-66
2021/11/02 11:14:15;;;;;;;12.27;5.97;;;11.00;99.90;;;;;;5023869;28;20107;-66
2021/11/02 11:16:49;;;;;;;8.50;5.95;;;11.00;99.90;;;;;;5004012;28;20319;-66
2021/11/02 11:19:29;;;;;;;8.65;5.43;;;11.00;99.90;;;;;;5011589;28;20064;-66
2021/11/02 11:22:00;;;;;;;7.57;5.38;;;11.00;99.90;;;;;;4999420;28;20120;-66
2021/11/02 11:24:44;;;;;;;7.90;5.45;;;10.90;99.90;;;;;;5026632;28;20111;-66
2021/11/02 11:27:10;;;;;;;6.05;4.78;;;10.90;99.90;;;;;;5020270;28;20045;-66
2021/11/02 11:29:49;;;;;;;7.78;4.75;;;10.80;99.90;;;;;;5026531;28;20056;-66
2021/11/02 11:32:20;;;;;;;7.97;5.32;;;10.80;99.90;;;;;;5019910;28;20517;-66
2021/11/02 11:34:51;;;;;;;9.07;5.28;;;10.70;99.90;;;;;;5009387;28;20107;-67
2021/11/02 11:37:21;;;;;;;5.63;4.88;;;10.60;99.90;;;;;;5019864;28;20037;-67
2021/11/02 11:39:51;;;;;;;6.50;4.80;;;10.60;99.90;;;;;;5008041;28;20033;-67
2021/11/02 11:42:18;;;;;;;7.45;4.82;;;10.50;99.90;;;;;;5018769;28;20084;-67
2021/11/02 11:44:52;;;;;;;4.95;4.45;;;10.50;99.90;;;;;;5028078;28;20072;-67
2021/11/02 11:47:25;;;;;;;8.07;4.65;;;10.40;99.90;;;;;;5018305;28;20050;-67
2021/11/02 11:49:52;;;;;;;7.35;4.47;;;10.30;99.90;;;;;;5018276;28;20477;-67
2021/11/02 11:52:24;;;;;;;9.25;4.75;;;10.40;99.90;;;;;;5008695;28;20053;-67
2021/11/02 11:54:55;;;;;;;8.52;4.38;;;10.40;99.90;;;;;;5024438;28;20041;-67
2021/11/02 11:57:36;;;;;;;6.55;4.30;;;10.40;99.90;;;;;;5019394;28;20073;-67
2021/11/02 12:00:09;;;;;;;8.40;4.50;;;10.40;99.90;;;;;;5019407;28;20038;-66
2021/11/02 12:03:16;;;;;;;6.53;3.92;;;10.40;99.90;;;;;;5026461;28;20038;-66
2021/11/02 12:05:45;;;;;;;6.82;4.60;;;10.30;99.90;;;;;;5029046;28;20074;-66
2021/11/02 12:08:37;;;;;;;10.32;4.55;;;10.20;99.90;;;;;;5016874;28;20060;-66
2021/11/02 12:11:04;;;;;;;6.97;4.70;;;10.20;99.90;;;;;;5009871;28;20037;-67
2021/11/02 12:13:31;;;;;;;6.95;4.50;;;10.20;99.90;;;;;;5018231;28;20607;-67
2021/11/02 12:16:13;;;;;;;6.50;5.22;;;10.10;99.90;;;;;;5028636;28;20045;-67
2021/11/02 12:19:14;;;;;;;7.05;4.90;;;10.10;99.90;;;;;;5015012;28;20048;-67
2021/11/02 12:21:42;;;;;;;7.00;4.93;;;10.20;99.90;;;;;;5026565;28;20034;-66
2021/11/02 12:24:14;;;;;;;7.72;5.47;;;10.30;99.90;;;;;;5019887;28;20048;-66
2021/11/02 12:26:50;;;;;;;6.97;5.32;;;10.40;99.90;;;;;;5026486;28;20033;-66
2021/11/02 12:29:23;;;;;;;6.43;5.15;;;10.50;99.90;;;;;;5019413;28;20046;-66
2021/11/02 12:32:06;;;;;;;6.55;5.53;;;10.60;99.90;;;;;;5010130;28;20044;-66
2021/11/02 12:34:50;;;;;;;8.98;5.90;;;10.70;99.90;;;;;;5018888;28;20405;-66
2021/11/02 12:37:17;;;;;;;10.73;6.05;;;10.70;99.90;;;;;;5011802;28;20038;-66
2021/11/02 12:39:44;;;;;;;6.38;5.75;;;10.70;99.90;;;;;;5026663;28;20033;-67
2021/11/02 12:42:11;;;;;;;6.72;5.28;;;10.70;99.90;;;;;;5029997;28;20041;-66
2021/11/02 12:44:39;;;;;;;7.93;5.75;;;10.80;99.90;;;;;;5020686;28;20037;-66
2021/11/02 12:47:13;;;;;;;6.30;5.43;;;10.80;99.90;;;;;;5026669;28;20116;-66
2021/11/02 12:49:57;;;;;;;7.93;5.75;;;10.90;99.90;;;;;;4999511;28;20048;-66
2021/11/02 12:52:27;;;;;;;7.00;5.10;;;10.90;99.90;;;;;;5003106;28;20531;-66
2021/11/02 12:55:11;;;;;;;8.38;5.15;;;10.80;99.90;;;;;;5019566;28;20049;-66
2021/11/02 12:57:40;;;;;;;6.50;4.88;;;10.80;99.90;;;;;;5027018;28;20037;-66
2021/11/02 13:00:10;;;;;;;11.10;5.45;;;10.70;99.90;;;;;;5026196;28;20045;-66
2021/11/02 13:02:38;;;;;;;7.72;5.13;;;10.70;99.90;;;;;;5025778;28;20041;-66
2021/11/02 13:05:07;;;;;;;7.47;5.43;;;10.60;99.90;;;;;;5029482;28;20503;-66
2021/11/02 13:07:41;;;;;;;5.82;4.80;;;10.60;99.90;;;;;;5022244;28;20033;-66
2021/11/02 13:10:16;;;;;;;7.18;4.85;;;10.50;99.90;;;;;;5014097;28;20124;-66
2021/11/02 13:12:49;;;;;;;6.50;4.60;;;10.40;99.90;;;;;;5020525;28;20061;-66
2021/11/02 13:15:15;;;;;;;7.45;4.82;;;10.40;99.90;;;;;;5028268;28;20100;-66
2021/11/02 13:17:47;;;;;;;6.93;4.82;;;10.30;99.90;;;;;;5024265;28;20442;-67
2021/11/02 13:20:35;;;;;;;7.28;4.90;;;10.30;99.90;;;;;;5029011;28;20326;-66
2021/11/02 13:23:03;;;;;;;6.30;4.82;;;10.30;99.90;;;;;;5023652;28;20049;-67
2021/11/02 13:25:40;;;;;;;8.07;4.28;;;10.30;99.90;;;;;;5011781;28;20103;-66
2021/11/02 13:28:07;;;;;;;5.50;4.03;;;10.30;99.90;;;;;;5018399;28;20045;-66
2021/11/02 13:30:43;;;;;;;6.30;4.47;;;10.30;99.90;;;;;;5031493;28;20075;-67
2021/11/02 13:33:17;;;;;;;8.02;4.40;;;10.30;99.90;;;;;;5023013;28;20132;-66
2021/11/02 13:35:55;;;;;;;5.80;4.50;;;10.20;99.90;;;;;;5027953;28;20048;-66
2021/11/02 13:38:42;;;;;;;5.75;4.40;;;10.30;99.90;;;;;;5018277;28;20277;-66
2021/11/02 13:41:24;;;;;;;5.07;4.10;;;10.30;99.90;;;;;;5024593;28;20112;-66
2021/11/02 13:43:52;;;;;;;6.53;4.22;;;10.40;99.90;;;;;;5023613;28;20389;-66
2021/11/02 13:46:20;;;;;;;5.90;4.57;;;10.40;99.90;;;;;;5029428;28;20049;-66
2021/11/02 13:48:47;;;;;;;6.53;4.15;;;10.50;99.90;;;;;;5019187;28;20041;-66
2021/11/02 13:51:16;;;;;;;4.50;4.10;;;10.40;99.90;;;;;;5028677;28;20037;-67
2021/11/02 13:53:43;;;;;;;4.63;3.60;;;10.40;99.90;;;;;;5007027;28;20048;-67
2021/11/02 13:56:21;;;;;;;4.82;3.80;;;10.40;99.90;;;;;;5010944;28;20041;-67
2021/11/02 13:58:47;;;;;;;4.55;3.83;;;10.40;99.90;;;;;;5019216;28;20029;-66
2021/11/02 14:01:42;;;;;;;8.50;3.60;;;10.30;99.90;;;;;;5011157;28;20053;-66
2021/11/02 14:04:22;;;;;;;6.53;4.10;;;10.30;99.90;;;;;;5022667;28;20423;-67
2021/11/02 14:06:59;;;;;;;5.70;3.75;;;10.30;99.90;;;;;;5023628;28;20188;-67
2021/11/02 14:09:29;;;;;;;4.05;3.55;;;10.30;99.90;;;;;;5021727;28;20361;-67
2021/11/02 14:11:56;;;;;;;5.72;3.50;;;10.20;99.90;;;;;;5025535;28;20501;-67
2021/11/02 14:14:33;;;;;;;5.00;3.67;;;10.20;99.90;;;;;;5022506;28;20049;-67
2021/11/02 14:17:17;;;;;;;5.32;3.83;;;10.20;99.90;;;;;;5021584;28;20045;-66
2021/11/02 14:19:45;;;;;;;5.22;3.67;;;10.20;99.90;;;;;;5007951;28;20052;-66
2021/11/02 14:22:12;;;;;;;7.20;4.07;;;10.20;99.90;;;;;;5027920;28;20116;-66
2021/11/02 14:24:43;;;;;;;7.05;4.45;;;10.20;99.90;;;;;;5020820;28;20068;-67
2021/11/02 14:27:11;;;;;;;4.82;3.22;;;10.10;99.90;;;;;;5028925;28;20048;-67
2021/11/02 14:29:46;;;;;;;5.13;3.75;;;10.10;99.90;;;;;;5022960;28;20049;-66
2021/11/02 14:32:34;;;;;;;4.22;3.40;;;10.10;99.90;;;;;;5027658;28;20069;-66
2021/11/02 14:35:01;;;;;;;3.78;3.38;;;10.00;99.90;;;;;;5017110;28;20049;-67
2021/11/02 14:37:43;;;;;;;5.78;3.75;;;10.00;99.90;;;;;;5027809;28;20495;-67
2021/11/02 14:40:11;;;;;;;5.20;3.78;;;10.00;99.90;;;;;;5024312;28;20378;-66
2021/11/02 14:42:48;;;;;;;4.88;3.80;;;9.90;99.90;;;;;;5002598;28;20385;-66
2021/11/02 14:45:16;;;;;;;5.30;3.90;;;9.90;99.90;;;;;;5019281;28;20036;-66
2021/11/02 14:47:42;;;;;;;6.15;3.65;;;9.90;99.90;;;;;;5028015;28;20670;-66
2021/11/02 14:50:49;;;;;;;6.55;3.28;;;9.80;99.90;;;;;;5024444;28;20042;-67
2021/11/02 14:53:30;;;;;;;4.18;3.72;;;9.80;99.90;;;;;;4953722;28;20062;-67
2021/11/02 14:56:06;;;;;;;5.18;4.25;;;9.70;99.90;;;;;;4995211;28;20522;-67
2021/11/02 14:58:44;;;;;;;6.07;3.90;;;9.70;99.90;;;;;;5024341;28;20366;-66
2021/11/02 15:01:13;;;;;;;6.40;4.43;;;9.70;99.90;;;;;;5023592;28;20034;-67
2021/11/02 15:04:06;;;;;;;6.25;3.97;;;9.60;99.90;;;;;;5024341;28;20088;-66
2021/11/02 15:06:55;;;;;;;6.25;5.00;;;9.60;99.90;;;;;;5023523;28;20087;-67
2021/11/02 15:09:24;;;;;;;6.63;4.63;;;9.60;99.90;;;;;;5025143;28;20049;-67
2021/11/02 15:11:51;;;;;;;5.30;4.57;;;9.50;99.90;;;;;;5012851;28;20406;-67
2021/11/02 15:14:23;;;;;;;5.68;4.85;;;9.50;99.90;;;;;;5023081;28;20388;-67
2021/11/02 15:16:56;;;;;;;8.20;4.80;;;9.50;99.90;;;;;;5021168;28;20033;-67
2021/11/02 15:19:26;;;;;;;6.07;5.07;;;9.40;99.90;;;;;;5023417;28;20045;-66
2021/11/02 15:21:55;;;;;;;6.60;4.75;;;9.40;99.90;;;;;;5014203;28;20038;-67
2021/11/02 15:24:32;;;;;;;6.30;5.10;;;9.30;99.90;;;;;;5026600;28;20450;-67
2021/11/02 15:27:11;;;;;;;6.40;4.85;;;9.30;99.90;;;;;;5019279;28;20111;-66
2021/11/02 15:29:43;;;;;;;5.68;5.18;;;9.30;99.90;;;;;;5005836;28;20045;-66
2021/11/02 15:32:12;;;;;;;5.93;5.25;;;9.20;99.90;;;;;;5018426;28;20133;-66
2021/11/02 15:35:10;;;;;;;6.97;5.25;;;9.20;99.90;;;;;;5025498;28;20706;-66
2021/11/02 15:37:42;;;;;;;6.28;5.18;;;9.10;99.90;;;;;;5008802;28;20046;-66
2021/11/02 15:40:15;;;;;;;7.70;5.90;;;9.10;99.90;;;;;;5026002;28;20432;-66
2021/11/02 15:43:09;;;;;;;11.88;7.43;;;9.10;99.90;;;;;;5015799;28;20454;-66
2021/11/02 15:45:40;;;;;;;8.23;6.35;;;9.00;99.90;;;;;;5004648;28;20045;-66
2021/11/02 15:48:15;;;;;;;7.95;5.72;;;9.00;99.90;;;;;;5018525;28;20053;-66
2021/11/02 15:50:44;;;;;;;10.00;6.35;;;9.00;99.90;;;;;;5022216;28;20037;-66
2021/11/02 15:53:11;;;;;;;6.57;5.90;;;9.00;99.90;;;;;;4993327;28;20072;-66
2021/11/02 15:55:37;;;;;;;9.50;6.05;;;9.00;99.90;;;;;;5008757;28;20416;-66
2021/11/02 15:58:07;;;;;;;6.85;5.57;;;8.90;99.90;;;;;;5007918;28;20034;-66
2021/11/02 16:00:37;;;;;;;8.25;5.93;;;8.90;99.90;;;;;;5025013;28;20461;-66
2021/11/02 16:03:14;;;;;;;9.27;6.20;;;8.90;99.90;;;;;;4979472;28;20402;-66
2021/11/02 16:05:42;;;;;;;6.47;5.80;;;8.90;99.90;;;;;;5027450;28;20045;-66
2021/11/02 16:08:20;;;;;;;6.70;6.00;;;8.90;99.90;;;;;;5001431;28;20050;-66
2021/11/02 16:10:49;;;;;;;7.70;6.25;;;8.80;99.90;;;;;;5021486;28;20037;-67
2021/11/02 16:13:15;;;;;;;10.20;6.10;;;8.80;99.90;;;;;;4997629;28;20470;-66
2021/11/02 16:15:43;;;;;;;6.95;6.25;;;8.80;99.90;;;;;;4989860;28;20041;-66
2021/11/02 16:18:22;;;;;;;11.65;7.10;;;8.80;99.90;;;;;;5019991;28;20541;-66
2021/11/02 16:20:48;;;;;;;7.03;5.97;;;8.80;99.90;;;;;;5020682;28;20041;-66
2021/11/02 16:23:17;;;;;;;8.00;6.82;;;8.80;99.90;;;;;;4985229;28;20073;-67
2021/11/02 16:25:50;;;;;;;10.75;6.75;;;8.80;99.90;;;;;;5021868;28;20079;-67
2021/11/02 16:28:25;;;;;;;7.88;6.40;;;8.80;99.90;;;;;;5020439;28;20406;-67
2021/11/02 16:30:55;;;;;;;8.90;5.75;;;8.80;99.90;;;;;;5020203;28;20067;-67
2021/11/02 16:33:39;;;;;;;8.38;6.53;;;8.70;99.90;;;;;;5022145;28;20029;-67
2021/11/02 16:36:17;;;;;;;9.18;6.13;;;8.70;99.90;;;;;;5023059;28;23672;-67
2021/11/02 16:38:43;;;;;;;7.20;5.88;;;8.70;99.90;;;;;;5019987;28;20128;-67
2021/11/02 16:41:25;;;;;;;9.55;6.70;;;8.70;99.90;;;;;;5024522;28;20041;-67
2021/11/02 16:43:56;;;;;;;8.52;6.68;;;8.70;99.90;;;;;;5011477;28;20478;-67
2021/11/02 16:46:27;;;;;;;7.78;5.78;;;8.60;99.90;;;;;;5003025;28;20509;-67
2021/11/02 16:49:23;;;;;;;8.40;6.53;;;8.60;99.90;;;;;;5003736;28;20378;-67
2021/11/02 16:51:52;;;;;;;10.15;7.30;;;8.70;99.90;;;;;;4996940;28;20117;-67
2021/11/02 16:54:22;;;;;;;7.30;6.18;;;8.60;99.90;;;;;;5002205;28;20042;-67
2021/11/02 16:57:09;;;;;;;7.28;6.47;;;8.60;99.90;;;;;;5004124;28;20061;-67
2021/11/02 16:59:59;;;;;;;9.77;6.93;;;8.60;99.90;;;;;;4978676;28;22871;-67
2021/11/02 17:02:30;;;;;;;8.77;7.00;;;8.60;99.90;;;;;;5025775;28;20037;-67
2021/11/02 17:05:19;;;;;;;9.60;7.00;;;8.50;99.90;;;;;;5002883;28;20045;-67
2021/11/02 17:08:04;;;;;;;9.90;7.18;;;8.60;99.90;;;;;;5022689;28;20041;-67
2021/11/02 17:10:32;;;;;;;12.32;7.00;;;8.60;99.90;;;;;;5018664;28;20413;-67
2021/11/02 17:13:24;;;;;;;10.18;7.15;;;8.60;99.90;;;;;;5024814;28;20041;-67
2021/11/02 17:16:10;;;;;;;8.00;6.63;;;8.60;99.90;;;;;;5018227;28;20486;-67
2021/11/02 17:19:04;;;;;;;10.88;7.38;;;8.60;99.90;;;;;;5022586;28;20747;-67
2021/11/02 17:21:31;;;;;;;9.73;7.07;;;8.60;99.90;;;;;;5022212;28;20125;-67
2021/11/02 17:23:59;;;;;;;9.73;7.18;;;8.50;99.90;;;;;;5009709;28;20046;-67
2021/11/02 17:26:26;;;;;;;10.95;6.90;;;8.60;99.90;;;;;;5021552;28;20144;-68
2021/11/02 17:28:53;;;;;;;10.20;7.35;;;8.50;99.90;;;;;;5028299;28;20049;-68
2021/11/02 17:31:36;;;;;;;8.75;7.68;;;8.50;99.90;;;;;;5021675;28;20025;-67
2021/11/02 17:34:07;;;;;;;9.52;6.43;;;8.50;99.90;;;;;;5021938;28;20484;-68
2021/11/02 17:36:35;;;;;;;9.13;7.55;;;8.50;99.90;;;;;;5022150;28;20044;-68
2021/11/02 17:39:03;;;;;;;10.98;7.55;;;8.50;99.90;;;;;;5006224;28;20116;-68
2021/11/02 17:41:31;;;;;;;12.38;7.80;;;8.60;99.90;;;;;;5003340;28;20464;-66
2021/11/02 17:43:57;;;;;;;8.27;7.38;;;8.60;99.90;;;;;;5031327;28;20398;-68
2021/11/02 17:46:23;;;;;;;9.27;8.18;;;8.60;99.90;;;;;;5019261;28;20103;-68
2021/11/02 17:48:50;;;;;;;8.60;7.03;;;8.60;99.90;;;;;;5010181;28;20041;-68
2021/11/02 17:51:15;;;;;;;11.75;7.95;;;8.50;99.90;;;;;;5004450;28;20076;-68
2021/11/02 17:53:42;;;;;;;10.40;8.70;;;8.60;99.90;;;;;;5019965;28;20517;-68
2021/11/02 17:56:10;;;;;;;14.98;8.63;;;8.60;99.90;;;;;;5008421;28;20129;-68
2021/11/02 17:58:42;;;;;;;11.88;9.43;;;8.60;99.90;;;;;;5006600;28;20103;-68
2021/11/02 18:01:10;;;;;;;10.27;8.25;;;8.60;99.90;;;;;;5004580;28;20054;-68
2021/11/02 18:03:39;;;;;;;14.93;9.70;;;8.60;99.90;;;;;;5005063;28;20120;-68
2021/11/02 18:06:08;;;;;;;14.20;9.57;;;8.60;99.90;;;;;;5029974;28;20034;-67
2021/11/02 18:08:35;;;;;;;11.07;9.48;;;8.60;99.90;;;;;;5000371;28;20486;-67
2021/11/02 18:11:01;;;;;;;12.50;8.98;;;8.60;99.90;;;;;;5028673;28;20037;-68
2021/11/02 18:13:29;;;;;;;14.00;10.20;;;8.60;99.90;;;;;;5000524;28;20124;-67